Time;durP1;ratioP1;P1;durP2;ratioP2;P2;SDS_P1;SDS_P2;PMS_P1;PMS_P2;Temp;Humidity;BMP_temperature;BMP_pressure;BME280_temperature;BME280_humidity;BME280_pressure;Samples;Min_cycle;Max_cycle;Signal;HPM_P1;HPM_P2
2022/11/18 00:01:10;;;;;;;30.40;22.65;;;;;;;1.12;100.00;98457.78;5073356;28;20055;-83
2022/11/18 00:03:36;;;;;;;23.88;17.80;;;;;;;1.00;100.00;98432.47;5073695;28;20024;-83
2022/11/18 00:06:02;;;;;;;24.98;19.23;;;;;;;1.08;100.00;98453.59;5073087;28;20024;-83
2022/11/18 00:08:28;;;;;;;26.48;19.83;;;;;;;1.03;100.00;98447.78;5073568;28;20024;-83
2022/11/18 00:10:53;;;;;;;31.10;23.13;;;;;;;1.05;100.00;98445.16;5055409;28;20027;-83
2022/11/18 00:16:06;;;;;;;23.55;18.25;;;;;;;0.98;100.00;98445.34;5065027;28;20028;-83
2022/11/18 00:18:31;;;;;;;26.23;19.42;;;;;;;0.92;100.00;98435.22;5053100;28;20029;-83
2022/11/18 00:21:01;;;;;;;25.73;20.15;;;;;;;0.96;100.00;98448.81;5053270;28;20025;-83
2022/11/18 00:23:27;;;;;;;25.30;20.25;;;;;;;0.96;100.00;98448.81;5053304;28;20095;-83
2022/11/18 00:25:52;;;;;;;22.17;17.90;;;;;;;0.95;100.00;98444.56;5035106;28;20115;-83
2022/11/18 00:28:18;;;;;;;23.48;19.70;;;;;;;0.90;100.00;98438.75;5052989;28;20400;-83
2022/11/18 00:30:43;;;;;;;25.50;18.85;;;;;;;0.97;100.00;98447.94;5034850;28;20112;-83
2022/11/18 00:33:08;;;;;;;26.95;20.17;;;;;;;0.96;100.00;98433.44;5052607;28;20079;-83
2022/11/18 00:35:34;;;;;;;22.92;19.00;;;;;;;0.95;100.00;98442.00;5051907;28;20021;-83
2022/11/18 00:37:59;;;;;;;25.30;19.88;;;;;;;0.99;100.00;98439.31;5052564;28;20028;-82
2022/11/18 00:40:24;;;;;;;28.13;20.70;;;;;;;0.92;100.00;98429.28;5052879;28;20031;-82
2022/11/18 00:42:50;;;;;;;22.88;18.55;;;;;;;0.96;100.00;98443.69;5052576;28;20476;-83
2022/11/18 00:45:16;;;;;;;20.95;17.58;;;;;;;0.97;100.00;98438.53;5034806;28;20029;-83
2022/11/18 00:47:41;;;;;;;26.75;20.38;;;;;;;0.88;100.00;98423.38;5034702;28;20021;-83
2022/11/18 00:50:07;;;;;;;21.52;18.20;;;;;;;0.90;100.00;98431.03;5052609;28;20031;-82
2022/11/18 00:52:32;;;;;;;25.85;19.95;;;;;;;0.97;100.00;98435.97;5034802;28;20024;-83
2022/11/18 00:54:58;;;;;;;21.13;17.70;;;;;;;0.91;100.00;98425.88;5034415;28;20017;-82
2022/11/18 00:57:23;;;;;;;23.92;19.73;;;;;;;0.98;100.00;98437.66;5034679;28;20043;-83
2022/11/18 00:59:49;;;;;;;22.42;18.90;;;;;;;0.83;100.00;98409.84;5034269;28;20082;-83
2022/11/18 01:02:14;;;;;;;26.75;19.13;;;;;;;0.86;100.00;98424.31;5034437;28;20064;-83
2022/11/18 01:04:39;;;;;;;22.83;17.33;;;;;;;0.86;100.00;98426.88;5034710;28;20127;-83
2022/11/18 01:07:05;;;;;;;19.75;16.05;;;;;;;0.86;100.00;98421.75;5034236;28;20024;-83
2022/11/18 01:09:30;;;;;;;30.25;20.40;;;;;;;0.79;100.00;98404.84;5052246;28;20032;-83
2022/11/18 01:14:39;;;;;;;38.88;22.00;;;;;;;0.89;100.00;98430.22;5052171;28;20087;-83
2022/11/18 01:17:05;;;;;;;44.15;26.30;;;;;;;0.87;100.00;98421.72;5034236;28;20021;-83
2022/11/18 01:19:30;;;;;;;35.53;24.85;;;;;;;0.86;100.00;98412.34;5052339;28;20025;-83
2022/11/18 01:21:56;;;;;;;26.50;20.50;;;;;;;0.83;100.00;98419.28;5052018;28;20105;-83
2022/11/18 01:24:21;;;;;;;27.00;21.23;;;;;;;0.84;100.00;98421.78;5052167;28;20032;-83
2022/11/18 01:26:47;;;;;;;41.83;28.52;;;;;;;0.85;100.00;98422.66;5052085;28;20475;-83
2022/11/18 01:29:12;;;;;;;26.23;19.95;;;;;;;0.78;100.00;98406.59;5051707;28;20453;-83
2022/11/18 01:31:38;;;;;;;28.00;20.20;;;;;;;0.81;100.00;98403.09;5034059;28;20021;-82
2022/11/18 01:34:04;;;;;;;24.55;18.42;;;;;;;0.83;100.00;98412.41;5051803;28;20175;-83
2022/11/18 01:36:29;;;;;;;25.42;20.83;;;;;;;0.87;100.00;98413.19;5051954;28;20079;-83
2022/11/18 01:38:55;;;;;;;25.15;20.27;;;;;;;0.81;100.00;98400.53;5051763;28;20036;-83
2022/11/18 01:41:24;;;;;;;24.73;20.48;;;;;;;0.67;100.00;98396.59;5051882;28;20013;-83
2022/11/18 01:43:49;;;;;;;26.38;20.85;;;;;;;0.78;100.00;98423.69;5051543;28;20107;-83
2022/11/18 01:46:15;;;;;;;23.50;18.90;;;;;;;0.74;100.00;98416.06;5051783;28;20021;-83
2022/11/18 01:48:40;;;;;;;21.65;17.63;;;;;;;0.67;100.00;98404.28;5034049;28;20115;-83
2022/11/18 01:51:12;;;;;;;24.48;18.33;;;;;;;0.77;100.00;98417.72;5051721;28;20599;-83
2022/11/18 01:53:40;;;;;;;22.02;18.05;;;;;;;0.73;100.00;98405.88;5033842;28;20052;-83
2022/11/18 01:56:19;;;;;;;22.90;18.73;;;;;;;0.64;100.00;98394.16;5051684;28;20071;-83
2022/11/18 01:58:52;;;;;;;24.88;18.23;;;;;;;0.68;100.00;98392.34;5051993;28;20048;-83
2022/11/18 02:01:18;;;;;;;23.17;18.80;;;;;;;0.68;100.00;98395.75;5034000;28;20341;-83
2022/11/18 02:03:45;;;;;;;21.80;17.92;;;;;;;0.69;100.00;98399.16;5051786;28;20021;-83
2022/11/18 02:06:12;;;;;;;23.60;18.02;;;;;;;0.62;100.00;98388.22;5051382;28;20100;-84
2022/11/18 02:08:38;;;;;;;25.55;20.55;;;;;;;0.63;100.00;98389.03;5051901;28;20419;-83
2022/11/18 02:11:04;;;;;;;25.65;20.40;;;;;;;0.67;100.00;98404.28;5051685;28;20372;-83
2022/11/18 02:13:31;;;;;;;26.85;21.58;;;;;;;0.59;100.00;98379.75;5051680;28;20086;-83
2022/11/18 02:16:18;;;;;;;25.20;19.88;;;;;;;0.63;100.00;98407.84;5051479;28;20098;-83
2022/11/18 02:19:02;;;;;;;33.33;23.52;;;;;;;0.62;100.00;98392.50;5051509;28;20104;-82
2022/11/18 02:22:10;;;;;;;25.58;20.05;;;;;;;0.60;100.00;98396.84;5033452;28;20029;-83
2022/11/18 02:24:57;;;;;;;27.95;20.63;;;;;;;0.64;100.00;98396.72;4951222;29;20050;-83
2022/11/18 02:27:44;;;;;;;26.55;20.17;;;;;;;0.61;100.00;98399.34;4951199;29;20050;-81
2022/11/18 02:30:12;;;;;;;31.92;23.25;;;;;;;0.60;100.00;98399.41;4934898;29;20024;-81
2022/11/18 02:32:48;;;;;;;27.40;21.33;;;;;;;0.60;100.00;98400.22;4958823;28;20433;-81
2022/11/18 02:35:29;;;;;;;32.95;24.38;;;;;;;0.57;100.00;98382.38;4989510;28;20038;-81
2022/11/18 02:38:00;;;;;;;30.25;23.85;;;;;;;0.62;100.00;98395.06;4989722;28;20031;-81
2022/11/18 02:40:32;;;;;;;27.15;21.52;;;;;;;0.58;100.00;98390.91;4989700;28;20473;-81
2022/11/18 02:43:08;;;;;;;31.00;22.45;;;;;;;0.52;100.00;98386.78;4989546;28;20037;-81
2022/11/18 02:45:37;;;;;;;32.83;22.50;;;;;;;0.42;100.00;98375.06;4990006;28;20034;-80
2022/11/18 02:48:08;;;;;;;30.65;24.25;;;;;;;0.47;100.00;98392.03;4989412;28;20034;-81
2022/11/18 02:50:35;;;;;;;26.70;21.13;;;;;;;0.48;100.00;98390.31;4989619;28;20044;-80
2022/11/18 02:53:05;;;;;;;29.30;21.52;;;;;;;0.39;100.00;98383.69;4989355;28;20113;-80
2022/11/18 02:55:33;;;;;;;25.38;19.77;;;;;;;0.42;100.00;98393.88;4973239;28;20022;-81
2022/11/18 02:58:01;;;;;;;28.52;21.30;;;;;;;0.42;100.00;98385.31;4990705;28;20347;-81
2022/11/18 03:00:26;;;;;;;28.90;21.38;;;;;;;0.39;100.00;98386.25;5048145;28;20472;-81
2022/11/18 03:02:51;;;;;;;34.22;22.83;;;;;;;0.36;100.00;98375.25;5073176;28;20115;-80
2022/11/18 03:05:31;;;;;;;39.45;27.15;;;;;;;0.40;100.00;98384.53;5074860;28;20032;-81
2022/11/18 03:08:02;;;;;;;27.95;19.85;;;;;;;0.41;100.00;98391.34;5074589;28;20036;-81
2022/11/18 03:10:35;;;;;;;25.90;19.42;;;;;;;0.43;100.00;98382.75;5073502;28;20013;-81
2022/11/18 03:13:31;;;;;;;24.52;18.92;;;;;;;0.41;100.00;98381.09;5073080;28;20032;-81
2022/11/18 03:16:04;;;;;;;25.75;18.60;;;;;;;0.45;100.00;98387.81;5073116;28;20087;-81
2022/11/18 03:18:41;;;;;;;32.60;23.83;;;;;;;0.44;100.00;98381.03;5074559;28;20028;-82
2022/11/18 03:21:13;;;;;;;32.90;22.52;;;;;;;0.49;100.00;98376.59;5074266;28;20107;-83
2022/11/18 03:23:46;;;;;;;26.38;18.88;;;;;;;0.37;100.00;98370.06;5074319;28;20052;-83
2022/11/18 03:26:19;;;;;;;25.63;18.67;;;;;;;0.41;100.00;98383.66;5074017;28;20099;-83
2022/11/18 03:29:03;;;;;;;24.25;18.23;;;;;;;0.42;100.00;98377.63;5071487;28;20037;-83
2022/11/18 03:31:50;;;;;;;23.80;19.27;;;;;;;0.33;100.00;98355.66;5071787;28;20047;-83
2022/11/18 03:34:21;;;;;;;28.67;21.25;;;;;;;0.32;100.00;98355.72;5071252;28;20106;-82
2022/11/18 03:36:52;;;;;;;29.73;21.60;;;;;;;0.37;100.00;98374.38;5054856;28;20523;-83
2022/11/18 03:39:21;;;;;;;30.75;22.08;;;;;;;0.29;100.00;98366.88;5071638;28;20040;-82
2022/11/18 03:41:52;;;;;;;27.45;21.17;;;;;;;0.31;100.00;98369.41;5054702;28;20092;-83
2022/11/18 03:44:23;;;;;;;29.92;22.27;;;;;;;0.26;100.00;98368.69;5071272;28;20036;-83
2022/11/18 03:46:59;;;;;;;31.42;21.42;;;;;;;0.26;100.00;98366.13;5071383;28;20029;-83
2022/11/18 03:49:32;;;;;;;32.78;22.58;;;;;;;0.24;100.00;98367.00;5071513;28;20036;-82
2022/11/18 03:52:05;;;;;;;30.75;22.50;;;;;;;0.16;100.00;98356.09;5071155;28;20521;-82
2022/11/18 03:54:35;;;;;;;28.40;22.35;;;;;;;0.16;100.00;98370.63;5071072;28;20471;-83
2022/11/18 03:57:08;;;;;;;36.08;27.02;;;;;;;0.15;100.00;98371.50;5071260;28;20078;-83
2022/11/18 04:00:10;;;;;;;31.35;24.20;;;;;;;0.19;100.00;98384.19;5072205;28;20357;-83
2022/11/18 04:02:36;;;;;;;31.10;21.98;;;;;;;0.09;100.00;98374.25;4992273;28;20034;-83
2022/11/18 04:05:04;;;;;;;29.08;22.92;;;;;;;-0.02;100.00;98359.97;4991533;28;20125;-83
2022/11/18 04:07:44;;;;;;;27.45;21.35;;;;;;;-0.01;100.00;98381.28;4991720;28;20062;-82
2022/11/18 04:10:16;;;;;;;22.85;16.48;;;;;;;-0.01;100.00;98373.59;4991355;28;20272;-83
2022/11/18 04:12:47;;;;;;;36.92;25.55;;;;;;;-0.01;100.00;98366.75;4991647;28;20640;-83
2022/11/18 04:15:14;;;;;;;55.78;31.83;;;;;;;-0.01;100.00;98364.22;4991507;28;20029;-82
2022/11/18 04:17:41;;;;;;;39.17;25.00;;;;;;;-0.03;100.00;98360.84;4991616;28;20418;-83
2022/11/18 04:20:15;;;;;;;30.67;22.38;;;;;;;-0.09;100.00;98353.31;4991314;28;20034;-83
2022/11/18 04:22:40;;;;;;;37.90;25.35;;;;;;;-0.10;100.00;98356.75;4991329;28;20397;-82
2022/11/18 04:25:06;;;;;;;33.97;24.65;;;;;;;-0.10;100.00;98367.00;4971708;28;20047;-83
2022/11/18 04:27:31;;;;;;;35.35;24.20;;;;;;;-0.07;100.00;98373.78;4955725;28;20035;-83
2022/11/18 04:29:57;;;;;;;29.65;22.02;;;;;;;-0.10;100.00;98361.88;4971812;28;20426;-83
2022/11/18 04:32:22;;;;;;;29.05;22.05;;;;;;;-0.13;100.00;98377.28;4971782;28;20377;-83
2022/11/18 04:34:47;;;;;;;27.63;19.77;;;;;;;-0.17;100.00;98378.28;4971799;28;20063;-82
2022/11/18 04:37:13;;;;;;;29.90;22.55;;;;;;;-0.22;100.00;98361.34;5048644;28;20121;-82
2022/11/18 04:39:38;;;;;;;31.10;22.48;;;;;;;-0.20;100.00;98374.94;5070314;28;20056;-83
2022/11/18 04:42:03;;;;;;;24.90;19.80;;;;;;;-0.24;100.00;98369.06;5053414;28;20032;-82
2022/11/18 04:44:31;;;;;;;26.33;19.80;;;;;;;-0.20;100.00;98382.63;5053492;28;20086;-82
2022/11/18 04:46:59;;;;;;;25.83;21.10;;;;;;;-0.24;100.00;98375.91;5070306;28;20039;-82
2022/11/18 04:49:25;;;;;;;26.15;20.55;;;;;;;-0.29;100.00;98370.88;5053395;28;20154;-82
2022/11/18 04:51:51;;;;;;;30.85;22.48;;;;;;;-0.31;100.00;98372.63;5070154;28;20039;-83
2022/11/18 04:54:17;;;;;;;25.45;19.90;;;;;;;-0.28;100.00;98370.84;5069866;28;20399;-82
2022/11/18 04:56:43;;;;;;;27.85;22.80;;;;;;;-0.33;100.00;98361.59;5065833;28;20032;-83
2022/11/18 04:59:10;;;;;;;27.02;20.20;;;;;;;-0.33;100.00;98366.72;5072157;28;20017;-82
2022/11/18 05:01:35;;;;;;;27.45;20.35;;;;;;;-0.28;100.00;98386.19;5072276;28;20108;-82
2022/11/18 05:04:02;;;;;;;29.05;20.33;;;;;;;-0.36;100.00;98387.25;5072123;28;20107;-82
2022/11/18 05:06:28;;;;;;;49.40;37.25;;;;;;;-0.32;100.00;98396.53;5071034;28;20035;-83
2022/11/18 05:08:54;;;;;;;45.78;37.13;;;;;;;-0.39;100.00;98383.03;5070672;28;20051;-82
2022/11/18 05:14:03;;;;;;;43.97;35.08;;;;;;;-0.38;100.00;98397.53;5071798;28;20036;-83
2022/11/18 05:16:29;;;;;;;53.47;40.17;;;;;;;-0.46;100.00;98385.75;5072218;28;20028;-83
2022/11/18 05:18:54;;;;;;;121.57;72.88;;;;;;;-0.43;100.00;98399.31;5072476;28;20103;-82
2022/11/18 05:21:19;;;;;;;32.30;25.05;;;;;;;-0.42;100.00;98403.59;5071368;28;20115;-82
2022/11/18 05:23:45;;;;;;;38.38;26.85;;;;;;;-0.46;100.00;98404.53;5071962;28;20062;-83
2022/11/18 05:26:10;;;;;;;30.85;23.45;;;;;;;-0.43;100.00;98424.91;5072043;28;20452;-83
2022/11/18 05:28:36;;;;;;;29.02;22.65;;;;;;;-0.44;100.00;98427.50;5071874;28;20031;-83
2022/11/18 05:31:06;;;;;;;36.22;29.23;;;;;;;-0.53;100.00;98426.81;5070265;28;20028;-83
2022/11/18 05:33:32;;;;;;;33.35;26.33;;;;;;;-0.52;100.00;98436.19;5060202;28;20076;-83
2022/11/18 05:36:02;;;;;;;128.73;80.22;;;;;;;-0.53;100.00;98441.34;5051819;28;20052;-83
2022/11/18 05:38:27;;;;;;;35.05;27.90;;;;;;;-0.60;100.00;98445.72;5052001;28;20028;-83
2022/11/18 05:40:53;;;;;;;42.05;30.25;;;;;;;-0.58;100.00;98444.00;5009556;28;20382;-83
2022/11/18 05:43:18;;;;;;;41.72;26.88;;;;;;;-0.58;100.00;98450.81;5009363;28;20528;-83
2022/11/18 05:45:43;;;;;;;49.22;33.28;;;;;;;-0.65;100.00;98449.25;5009633;28;20038;-83
2022/11/18 05:48:09;;;;;;;41.92;28.77;;;;;;;-0.70;100.00;98444.25;4993061;28;20026;-83
2022/11/18 05:50:36;;;;;;;70.18;40.60;;;;;;;-0.80;100.00;98433.38;5009832;28;20064;-83
2022/11/18 05:53:03;;;;;;;42.45;29.23;;;;;;;-0.73;100.00;98444.28;4993308;28;20085;-83
2022/11/18 05:55:53;;;;;;;49.88;34.03;;;;;;;-0.67;100.00;98456.97;5009716;28;20045;-83
2022/11/18 05:58:19;;;;;;;107.63;60.90;;;;;;;-0.61;100.00;98456.84;5008925;28;20059;-83
2022/11/18 06:00:47;;;;;;;63.80;42.10;;;;;;;-0.68;100.00;98446.75;4993185;28;20128;-83
2022/11/18 06:03:20;;;;;;;53.97;37.05;;;;;;;-0.63;100.00;98458.59;4992883;28;20022;-83
2022/11/18 06:05:46;;;;;;;78.93;49.58;;;;;;;-0.65;100.00;98460.31;4993136;28;20038;-83
2022/11/18 06:08:15;;;;;;;50.03;35.60;;;;;;;-0.67;100.00;98471.47;5009407;28;20026;-83
2022/11/18 06:10:42;;;;;;;73.13;48.35;;;;;;;-0.72;100.00;98465.59;5009689;28;20165;-83
2022/11/18 06:13:13;;;;;;;52.15;35.42;;;;;;;-0.71;99.89;98465.56;5051516;28;20021;-83
2022/11/18 06:15:41;;;;;;;91.38;56.75;;;;;;;-0.79;99.33;98458.06;5051548;28;20021;-83
2022/11/18 06:18:16;;;;;;;53.67;36.33;;;;;;;-0.76;99.80;98477.59;5033487;28;20021;-83
2022/11/18 06:20:41;;;;;;;72.15;45.42;;;;;;;-0.75;100.00;98479.28;5051578;28;20468;-83
2022/11/18 06:23:07;;;;;;;45.20;31.58;;;;;;;-0.77;100.00;98479.31;5051114;28;20028;-83
2022/11/18 06:25:36;;;;;;;37.28;28.17;;;;;;;-0.78;100.00;98481.91;5051614;28;20032;-83
2022/11/18 06:28:01;;;;;;;62.17;40.90;;;;;;;-0.82;100.00;98488.78;5051496;28;20056;-83
2022/11/18 06:30:27;;;;;;;37.90;27.48;;;;;;;-0.96;100.00;98488.22;5051220;28;20049;-83
2022/11/18 06:32:52;;;;;;;41.22;29.80;;;;;;;-0.99;99.42;98500.22;5052666;28;20065;-83
2022/11/18 06:35:18;;;;;;;102.35;62.92;;;;;;;-1.11;99.65;98493.59;5054890;28;20020;-84
2022/11/18 06:37:43;;;;;;;38.80;28.13;;;;;;;-1.19;99.64;98503.94;5055071;28;20364;-84
2022/11/18 06:40:09;;;;;;;76.25;47.90;;;;;;;-1.24;100.00;98515.97;5037115;28;20032;-84
2022/11/18 06:45:18;;;;;;;63.90;39.13;;;;;;;-1.26;100.00;98512.63;5054810;28;20028;-84
2022/11/18 06:47:44;;;;;;;45.15;30.08;;;;;;;-1.33;100.00;98504.19;5054971;28;20372;-84
2022/11/18 06:50:09;;;;;;;43.78;31.35;;;;;;;-1.41;100.00;98500.09;5054876;28;20482;-84
2022/11/18 06:52:35;;;;;;;74.53;42.15;;;;;;;-1.34;100.00;98519.56;5055092;28;20519;-84
2022/11/18 06:55:00;;;;;;;339.70;141.07;;;;;;;-1.38;100.00;98526.44;5037036;28;20021;-84
2022/11/18 06:57:26;;;;;;;105.03;60.22;;;;;;;-1.41;100.00;98529.03;5036812;28;20469;-84
2022/11/18 06:59:51;;;;;;;42.78;30.17;;;;;;;-1.32;100.00;98538.25;5055100;28;20017;-84
2022/11/18 07:02:17;;;;;;;56.53;37.05;;;;;;;-1.30;100.00;98544.19;5054439;28;20095;-84
2022/11/18 07:04:44;;;;;;;59.60;40.35;;;;;;;-1.24;100.00;98541.50;5054567;28;20025;-84
2022/11/18 07:07:09;;;;;;;100.68;63.47;;;;;;;-1.28;100.00;98520.28;5054471;28;20032;-84
2022/11/18 07:09:35;;;;;;;82.07;50.75;;;;;;;-1.20;100.00;98527.00;5054674;28;20345;-84
2022/11/18 07:12:01;;;;;;;44.88;31.85;;;;;;;-1.20;100.00;98522.72;5036649;28;20021;-84
2022/11/18 07:14:27;;;;;;;51.08;35.10;;;;;;;-1.17;100.00;98524.38;5054356;28;20025;-84
2022/11/18 07:16:52;;;;;;;49.20;34.17;;;;;;;-1.12;100.00;98522.59;5054741;28;20349;-84
2022/11/18 07:19:17;;;;;;;42.88;31.83;;;;;;;-1.14;100.00;98530.25;5036104;28;20487;-84
2022/11/18 07:21:43;;;;;;;44.53;31.67;;;;;;;-1.12;100.00;98532.81;5011917;28;20066;-84
2022/11/18 07:24:11;;;;;;;68.95;48.47;;;;;;;-1.19;100.00;98533.78;5011901;28;20041;-84
2022/11/18 07:26:37;;;;;;;81.38;50.05;;;;;;;-1.23;100.00;98527.03;5012110;28;20474;-84
2022/11/18 07:29:03;;;;;;;44.72;32.53;;;;;;;-1.16;100.00;98539.69;5012046;28;20021;-84
2022/11/18 07:31:28;;;;;;;51.03;34.20;;;;;;;-1.12;100.00;98537.91;4995290;28;20065;-84
2022/11/18 07:33:54;;;;;;;48.80;31.85;;;;;;;-1.17;100.00;98534.59;4995206;28;20224;-84
2022/11/18 07:36:21;;;;;;;56.10;36.13;;;;;;;-1.17;99.94;98544.81;5011701;28;20096;-84
2022/11/18 07:38:47;;;;;;;53.97;32.80;;;;;;;-1.17;99.93;98540.56;5011887;28;20470;-84
2022/11/18 07:41:18;;;;;;;62.50;37.75;;;;;;;-1.24;99.43;98533.84;4995190;28;20153;-84
2022/11/18 07:43:44;;;;;;;53.40;31.38;;;;;;;-1.24;99.25;98554.28;5011497;28;20034;-84
2022/11/18 07:46:11;;;;;;;47.80;31.48;;;;;;;-1.20;99.33;98550.81;5011393;28;20026;-84
2022/11/18 07:48:36;;;;;;;57.08;34.92;;;;;;;-1.24;98.08;98545.78;4995140;28;20609;-84
2022/11/18 07:51:02;;;;;;;62.85;38.15;;;;;;;-1.33;98.53;98541.69;5011667;28;20021;-84
2022/11/18 07:53:31;;;;;;;55.92;33.22;;;;;;;-1.32;97.65;98548.47;5045706;28;20124;-84
2022/11/18 07:55:56;;;;;;;55.03;35.83;;;;;;;-1.30;97.45;98560.34;5053768;28;20028;-84
2022/11/18 07:58:22;;;;;;;58.58;32.65;;;;;;;-1.27;96.81;98555.16;5053335;28;20029;-83
2022/11/18 08:00:47;;;;;;;53.90;31.45;;;;;;;-1.31;96.96;98553.56;5035570;28;20112;-83
2022/11/18 08:03:12;;;;;;;46.65;32.13;;;;;;;-1.35;96.28;98544.28;5053844;28;20059;-84
2022/11/18 08:05:38;;;;;;;56.28;33.30;;;;;;;-1.30;96.82;98550.13;5053596;28;20025;-83
2022/11/18 08:08:03;;;;;;;62.53;38.47;;;;;;;-1.35;95.62;98540.84;5035795;28;20021;-83
2022/11/18 08:10:29;;;;;;;48.88;33.80;;;;;;;-1.39;94.36;98534.09;5053365;28;20021;-83
2022/11/18 08:12:56;;;;;;;51.53;34.60;;;;;;;-1.33;94.31;98539.13;5035527;28;20016;-83
2022/11/18 08:15:21;;;;;;;53.95;36.08;;;;;;;-1.42;94.45;98514.59;5028103;28;20025;-84
2022/11/18 08:17:47;;;;;;;53.83;34.30;;;;;;;-1.30;94.27;98533.97;5043942;28;20052;-84
2022/11/18 08:20:12;;;;;;;62.08;39.35;;;;;;;-1.34;94.21;98527.22;5052928;28;20025;-84
2022/11/18 08:22:38;;;;;;;44.05;30.30;;;;;;;-1.23;94.16;98544.91;5031954;28;20025;-84
2022/11/18 08:25:03;;;;;;;80.07;44.58;;;;;;;-1.24;93.87;98541.50;5024584;28;20164;-84
2022/11/18 08:27:30;;;;;;;69.88;41.33;;;;;;;-1.30;94.57;98537.38;5038437;28;20033;-84
2022/11/18 08:29:56;;;;;;;50.55;35.35;;;;;;;-1.30;94.65;98544.19;5022759;28;20030;-84
2022/11/18 08:32:21;;;;;;;47.72;31.90;;;;;;;-1.21;93.96;98561.06;5033955;28;20037;-84
2022/11/18 08:34:47;;;;;;;43.67;30.60;;;;;;;-1.25;93.91;98534.72;5015781;28;20025;-84
2022/11/18 08:37:12;;;;;;;95.15;54.25;;;;;;;-1.26;93.83;98556.03;5036942;28;20025;-84
2022/11/18 08:39:37;;;;;;;84.68;48.90;;;;;;;-1.26;94.24;98554.31;5023178;28;20117;-84
2022/11/18 08:42:03;;;;;;;43.78;29.27;;;;;;;-1.36;93.68;98546.81;5032868;28;20476;-84
2022/11/18 08:44:32;;;;;;;54.20;31.38;;;;;;;-1.28;93.40;98556.06;5037377;28;20021;-84
2022/11/18 08:46:57;;;;;;;60.67;34.22;;;;;;;-1.28;92.80;98563.72;5041442;28;20051;-84
2022/11/18 08:49:23;;;;;;;79.15;42.00;;;;;;;-1.32;93.32;98559.53;5043003;28;20075;-84
2022/11/18 08:51:48;;;;;;;57.67;33.80;;;;;;;-1.37;92.98;98547.69;5040405;28;20096;-84
2022/11/18 08:54:13;;;;;;;39.60;28.65;;;;;;;-1.31;92.30;98557.81;5041786;28;20044;-82
2022/11/18 08:56:39;;;;;;;38.95;27.05;;;;;;;-1.40;92.49;98545.19;5040615;28;20029;-83
2022/11/18 08:59:04;;;;;;;37.45;25.23;;;;;;;-1.30;92.07;98565.47;5038129;28;20018;-82
2022/11/18 09:01:36;;;;;;;53.72;33.22;;;;;;;-1.39;91.64;98574.97;5014577;28;20049;-83
2022/11/18 09:04:01;;;;;;;32.95;25.23;;;;;;;-1.34;90.74;98585.97;5032734;28;20026;-83
2022/11/18 09:06:27;;;;;;;39.10;28.25;;;;;;;-1.38;90.80;98587.72;5032343;28;20025;-83
2022/11/18 09:08:53;;;;;;;34.53;24.70;;;;;;;-1.40;90.93;98597.09;5014722;28;20044;-83
2022/11/18 09:11:21;;;;;;;60.88;36.47;;;;;;;-1.40;91.46;98588.59;5014399;28;20057;-83
2022/11/18 09:13:50;;;;;;;42.83;29.05;;;;;;;-1.42;91.18;98603.13;5032155;28;20338;-83
2022/11/18 09:16:15;;;;;;;43.92;31.98;;;;;;;-1.41;91.59;98595.44;5014500;28;20029;-83
2022/11/18 09:18:41;;;;;;;35.13;25.95;;;;;;;-1.38;91.27;98605.59;5032415;28;20021;-83
2022/11/18 09:21:08;;;;;;;39.05;26.60;;;;;;;-1.53;90.59;98583.69;5014776;28;20027;-83
2022/11/18 09:23:35;;;;;;;27.90;22.77;;;;;;;-1.41;90.44;98602.25;5032123;28;20067;-83
2022/11/18 09:26:13;;;;;;;48.50;33.15;;;;;;;-1.43;90.10;98606.53;5014431;28;20024;-83
2022/11/18 09:28:39;;;;;;;35.63;26.50;;;;;;;-1.41;90.76;98603.09;5032233;28;20508;-83
2022/11/18 09:31:09;;;;;;;32.88;24.35;;;;;;;-1.36;90.50;98601.31;5014575;28;20163;-83
2022/11/18 09:33:35;;;;;;;33.88;23.23;;;;;;;-1.40;89.94;98591.16;5034000;28;20044;-83
2022/11/18 09:36:01;;;;;;;32.28;24.92;;;;;;;-1.42;90.03;98600.56;5051868;28;20028;-83
2022/11/18 09:38:31;;;;;;;28.25;22.50;;;;;;;-1.40;90.11;98606.47;5051640;28;20032;-83
2022/11/18 09:41:14;;;;;;;39.65;27.83;;;;;;;-1.37;89.37;98606.44;5051766;28;20027;-82
2022/11/18 09:43:42;;;;;;;26.02;20.40;;;;;;;-1.41;89.78;98603.09;5051771;28;20036;-82
2022/11/18 09:46:43;;;;;;;28.13;21.83;;;;;;;-1.44;90.38;98605.69;5050497;28;20106;-82
2022/11/18 09:49:15;;;;;;;31.02;22.52;;;;;;;-1.43;89.79;98606.53;4954474;28;20080;-83
2022/11/18 09:51:47;;;;;;;30.88;23.58;;;;;;;-1.40;89.57;98615.00;4970698;28;20023;-83
2022/11/18 09:54:25;;;;;;;40.35;28.92;;;;;;;-1.39;90.42;98605.59;4970554;28;20050;-83
2022/11/18 09:56:52;;;;;;;46.22;32.78;;;;;;;-1.33;89.57;98619.16;4954292;28;20023;-83
2022/11/18 09:59:22;;;;;;;35.47;25.80;;;;;;;-1.31;89.38;98616.56;4970452;28;20031;-83
2022/11/18 10:01:51;;;;;;;56.05;45.03;;;;;;;-1.28;89.36;98609.69;4970593;28;20034;-83
2022/11/18 10:04:19;;;;;;;30.88;23.48;;;;;;;-1.29;88.74;98605.47;4970387;28;20038;-83
2022/11/18 10:06:46;;;;;;;79.13;45.50;;;;;;;-1.20;88.80;98611.28;4971695;28;20030;-83
2022/11/18 10:09:36;;;;;;;53.70;36.38;;;;;;;-1.14;89.40;98614.56;4974335;28;20027;-83
2022/11/18 10:12:07;;;;;;;58.67;39.72;;;;;;;-1.13;88.72;98620.56;4974381;28;20022;-83
2022/11/18 10:14:42;;;;;;;50.38;38.67;;;;;;;-1.14;89.01;98613.72;4974163;28;20031;-83
2022/11/18 10:17:35;;;;;;;71.20;45.92;;;;;;;-1.15;87.80;98620.56;4974579;28;20162;-83
2022/11/18 10:20:22;;;;;;;41.95;29.38;;;;;;;-1.20;87.68;98608.75;4974258;28;20093;-83
2022/11/18 10:23:21;;;;;;;37.80;26.05;;;;;;;-1.20;87.99;98606.19;4974235;28;20423;-83
2022/11/18 10:25:47;;;;;;;36.55;25.35;;;;;;;-1.19;88.75;98607.88;4997271;28;20103;-83
2022/11/18 10:28:28;;;;;;;42.10;30.88;;;;;;;-1.18;89.04;98607.84;5055072;28;20029;-83
2022/11/18 10:31:06;;;;;;;44.17;32.20;;;;;;;-1.19;88.29;98623.19;5055277;28;20186;-83
2022/11/18 10:33:31;;;;;;;42.08;31.02;;;;;;;-1.26;88.56;98610.53;5043806;28;20056;-83
2022/11/18 10:36:17;;;;;;;37.50;27.13;;;;;;;-1.22;88.01;98623.22;5035376;28;20029;-83
2022/11/18 10:38:44;;;;;;;48.95;34.97;;;;;;;-1.24;89.08;98623.25;5035456;28;20025;-83
2022/11/18 10:41:16;;;;;;;54.92;34.65;;;;;;;-1.22;88.58;98634.31;5017300;28;20022;-83
2022/11/18 10:43:54;;;;;;;43.75;30.85;;;;;;;-1.31;88.99;98614.88;5035068;28;20033;-83
2022/11/18 10:46:34;;;;;;;35.22;25.23;;;;;;;-1.24;89.07;98622.44;5035126;28;20372;-83
2022/11/18 10:49:09;;;;;;;43.58;29.60;;;;;;;-1.26;88.79;98633.53;5025359;28;20027;-83
2022/11/18 10:51:42;;;;;;;45.45;31.00;;;;;;;-1.32;89.43;98614.88;5074025;28;20478;-82
2022/11/18 10:54:22;;;;;;;49.05;32.50;;;;;;;-1.34;89.67;98606.41;5056506;28;20031;-82
2022/11/18 10:56:53;;;;;;;33.90;24.33;;;;;;;-1.21;89.69;98627.50;5074427;28;20417;-82
2022/11/18 10:59:39;;;;;;;57.58;32.95;;;;;;;-1.27;89.81;98618.19;5056413;28;20123;-82
2022/11/18 11:02:28;;;;;;;54.25;30.92;;;;;;;-1.27;89.61;98633.53;5074120;28;20115;-82
2022/11/18 11:04:54;;;;;;;74.72;45.97;;;;;;;-1.30;90.20;98631.88;5074330;28;20255;-82
2022/11/18 11:07:30;;;;;;;44.17;29.40;;;;;;;-1.26;90.45;98630.13;5074068;28;20274;-82
2022/11/18 11:10:07;;;;;;;46.55;30.65;;;;;;;-1.26;90.48;98645.44;5073953;28;20035;-82
2022/11/18 11:12:45;;;;;;;53.95;33.88;;;;;;;-1.29;91.17;98633.56;5073733;28;20017;-82
2022/11/18 11:15:40;;;;;;;74.43;42.47;;;;;;;-1.27;90.99;98638.63;5074151;28;20021;-83
2022/11/18 11:20:57;;;;;;;60.90;35.72;;;;;;;-1.26;92.55;98635.22;5074181;28;20043;-82
2022/11/18 11:23:23;;;;;;;76.20;49.35;;;;;;;-1.32;91.89;98627.66;5055799;28;20527;-82
2022/11/18 11:26:10;;;;;;;68.90;42.47;;;;;;;-1.23;92.38;98649.66;5055841;28;20056;-82
2022/11/18 11:28:42;;;;;;;77.00;42.63;;;;;;;-1.23;92.60;98649.66;5055292;28;20012;-83
2022/11/18 11:31:49;;;;;;;71.15;42.25;;;;;;;-1.22;93.20;98647.09;5073686;28;20082;-83
2022/11/18 11:34:53;;;;;;;85.15;45.92;;;;;;;-1.19;93.67;98646.19;5006007;28;20124;-83
2022/11/18 11:37:45;;;;;;;64.18;38.55;;;;;;;-1.17;93.52;98649.56;4933910;29;20031;-83
2022/11/18 11:40:23;;;;;;;56.08;36.10;;;;;;;-1.28;92.87;98639.50;4933894;29;20399;-84